Time;durP1;ratioP1;P1;durP2;ratioP2;P2;SDS_P1;SDS_P2;PMS_P1;PMS_P2;Temp;Humidity;BMP_temperature;BMP_pressure;BME280_temperature;BME280_humidity;BME280_pressure;Samples;Min_cycle;Max_cycle;Signal;HPM_P1;HPM_P2
2023/12/07 00:00:02;;;;;;;12.05;3.85;;;;;;;;;;5031219;28;20106;-41
2023/12/07 00:02:31;;;;;;;11.13;4.05;;;;;;;;;;5020165;28;20033;-42
2023/12/07 00:04:59;;;;;;;15.00;3.90;;;;;;;;;;5027714;28;20041;-41
2023/12/07 00:07:28;;;;;;;9.80;3.87;;;;;;;;;;5012240;28;20041;-42
2023/12/07 00:09:56;;;;;;;11.32;3.70;;;;;;;;;;5024270;28;20447;-41
2023/12/07 00:12:24;;;;;;;12.52;3.53;;;;;;;;;;5020475;28;20045;-44
2023/12/07 00:14:53;;;;;;;9.32;3.28;;;;;;;;;;5020597;28;20045;-42
2023/12/07 00:17:21;;;;;;;9.95;3.00;;;;;;;;;;5012639;28;20048;-42
2023/12/07 00:19:53;;;;;;;12.43;3.70;;;;;;;;;;5020220;28;20574;-42
2023/12/07 00:22:24;;;;;;;8.38;3.00;;;;;;;;;;5020227;28;20056;-42
2023/12/07 00:24:53;;;;;;;10.27;3.25;;;;;;;;;;5017842;28;20453;-43
2023/12/07 00:27:21;;;;;;;12.43;3.25;;;;;;;;;;5022077;28;20033;-42
2023/12/07 00:29:48;;;;;;;9.02;3.38;;;;;;;;;;5018956;28;20052;-42
2023/12/07 00:32:19;;;;;;;12.97;3.40;;;;;;;;;;5022329;28;20072;-42
2023/12/07 00:34:47;;;;;;;12.85;3.10;;;;;;;;;;5019432;28;20056;-42
2023/12/07 00:37:15;;;;;;;11.95;3.20;;;;;;;;;;5026824;28;20481;-42
2023/12/07 00:39:42;;;;;;;10.18;2.22;;;;;;;;;;5012975;28;20063;-41
2023/12/07 00:42:10;;;;;;;9.02;2.63;;;;;;;;;;5023921;28;20578;-41
2023/12/07 00:44:40;;;;;;;11.23;3.00;;;;;;;;;;5013619;28;20041;-43
2023/12/07 00:47:08;;;;;;;9.32;2.28;;;;;;;;;;5023309;28;20340;-43
2023/12/07 00:49:40;;;;;;;8.93;2.67;;;;;;;;;;5017588;28;20045;-43
2023/12/07 00:52:08;;;;;;;11.15;2.70;;;;;;;;;;5021959;28;20045;-41
2023/12/07 00:54:36;;;;;;;10.15;2.83;;;;;;;;;;5015165;28;20454;-43
2023/12/07 00:57:04;;;;;;;11.17;2.90;;;;;;;;;;5023967;28;20048;-42
2023/12/07 00:59:33;;;;;;;9.77;2.63;;;;;;;;;;5017907;28;20049;-42
2023/12/07 01:02:02;;;;;;;11.88;3.08;;;;;;;;;;5014614;28;20044;-42
2023/12/07 01:04:29;;;;;;;11.80;3.00;;;;;;;;;;5015295;28;20395;-43
2023/12/07 01:06:59;;;;;;;14.65;2.83;;;;;;;;;;5023293;28;20507;-42
2023/12/07 01:09:27;;;;;;;11.37;2.93;;;;;;;;;;5011509;28;20052;-42
2023/12/07 01:11:57;;;;;;;10.70;2.58;;;;;;;;;;5023285;28;20048;-41
2023/12/07 01:14:26;;;;;;;9.30;2.83;;;;;;;;;;5019730;28;20575;-43
2023/12/07 01:16:53;;;;;;;8.38;2.60;;;;;;;;;;5015751;28;20543;-43
2023/12/07 01:19:21;;;;;;;7.15;2.38;;;;;;;;;;5022445;28;20037;-42
2023/12/07 01:21:49;;;;;;;11.80;2.70;;;;;;;;;;5021074;28;20045;-46
2023/12/07 01:24:18;;;;;;;11.40;2.97;;;;;;;;;;5019937;28;20717;-41
2023/12/07 01:26:46;;;;;;;8.70;3.10;;;;;;;;;;5012559;28;20087;-42
2023/12/07 01:29:14;;;;;;;9.98;2.90;;;;;;;;;;5016719;28;20037;-42
2023/12/07 01:31:42;;;;;;;9.15;2.60;;;;;;;;;;5020781;28;20041;-42
2023/12/07 01:34:10;;;;;;;9.03;2.63;;;;;;;;;;5019195;28;20091;-42
2023/12/07 01:36:38;;;;;;;6.95;2.30;;;;;;;;;;5020136;28;20047;-41
2023/12/07 01:39:06;;;;;;;9.45;2.45;;;;;;;;;;5014570;28;20048;-42
2023/12/07 01:41:35;;;;;;;11.23;2.60;;;;;;;;;;5017460;28;20510;-42
2023/12/07 01:44:03;;;;;;;7.95;2.45;;;;;;;;;;5019200;28;20111;-42
2023/12/07 01:46:31;;;;;;;11.50;3.00;;;;;;;;;;5015966;28;20048;-42
2023/12/07 01:48:59;;;;;;;9.77;3.00;;;;;;;;;;5018269;28;20033;-42
2023/12/07 01:51:28;;;;;;;10.88;3.30;;;;;;;;;;5016951;28;20799;-44
2023/12/07 01:53:55;;;;;;;9.15;3.10;;;;;;;;;;5021402;28;20041;-42
2023/12/07 01:56:24;;;;;;;12.15;2.95;;;;;;;;;;5015843;28;20045;-42
2023/12/07 01:58:53;;;;;;;8.13;2.63;;;;;;;;;;5023907;28;20049;-41
2023/12/07 02:01:22;;;;;;;9.23;2.45;;;;;;;;;;5016174;28;20436;-41
2023/12/07 02:03:50;;;;;;;9.35;2.83;;;;;;;;;;5022822;28;20041;-43
2023/12/07 02:06:18;;;;;;;7.85;3.00;;;;;;;;;;5015901;28;20210;-41
2023/12/07 02:08:46;;;;;;;10.43;3.40;;;;;;;;;;5017187;28;20045;-41
2023/12/07 02:11:14;;;;;;;9.77;3.37;;;;;;;;;;5017030;28;20049;-43
2023/12/07 02:13:42;;;;;;;15.73;3.75;;;;;;;;;;5026590;28;20048;-42
2023/12/07 02:16:14;;;;;;;13.02;3.78;;;;;;;;;;5025536;28;20052;-42
2023/12/07 02:19:03;;;;;;;11.57;4.07;;;;;;;;;;5022507;28;20033;-41
2023/12/07 02:21:35;;;;;;;9.65;3.40;;;;;;;;;;5024053;28;20408;-42
2023/12/07 02:24:03;;;;;;;11.70;3.13;;;;;;;;;;5018920;28;20037;-42
2023/12/07 02:26:34;;;;;;;9.32;3.40;;;;;;;;;;5027301;28;20040;-42
2023/12/07 02:29:02;;;;;;;15.10;3.95;;;;;;;;;;5018468;28;20041;-42
2023/12/07 02:31:29;;;;;;;12.10;3.50;;;;;;;;;;5020300;28;20393;-42
2023/12/07 02:33:57;;;;;;;8.32;4.00;;;;;;;;;;5020349;28;20427;-42
2023/12/07 02:36:28;;;;;;;11.77;3.90;;;;;;;;;;5029315;28;20024;-41
2023/12/07 02:38:57;;;;;;;12.43;3.55;;;;;;;;;;5021227;28;20480;-42
2023/12/07 02:41:25;;;;;;;13.65;4.22;;;;;;;;;;5024314;28;20041;-42
2023/12/07 02:43:55;;;;;;;11.55;3.95;;;;;;;;;;5022893;28;20094;-42
2023/12/07 02:46:22;;;;;;;12.05;3.83;;;;;;;;;;5023367;28;20048;-42
2023/12/07 02:48:50;;;;;;;12.37;4.30;;;;;;;;;;5019074;28;20049;-42
2023/12/07 02:51:18;;;;;;;10.57;3.63;;;;;;;;;;5033134;28;20040;-42
2023/12/07 02:53:46;;;;;;;17.58;4.13;;;;;;;;;;5020532;28;20068;-42
2023/12/07 02:56:14;;;;;;;9.63;3.78;;;;;;;;;;5015692;28;20045;-42
2023/12/07 02:58:42;;;;;;;11.98;3.92;;;;;;;;;;5029904;28;20123;-41
2023/12/07 03:01:11;;;;;;;14.17;3.60;;;;;;;;;;5025566;28;20041;-43
2023/12/07 03:03:41;;;;;;;12.18;4.63;;;;;;;;;;5010961;28;20059;-41
2023/12/07 03:06:09;;;;;;;10.45;3.60;;;;;;;;;;5028763;28;20045;-45
2023/12/07 03:08:37;;;;;;;14.10;4.03;;;;;;;;;;5029873;28;20037;-41
2023/12/07 03:11:05;;;;;;;11.60;4.18;;;;;;;;;;5024163;28;20462;-43
2023/12/07 03:13:32;;;;;;;14.20;4.30;;;;;;;;;;5027343;28;20060;-42
2023/12/07 03:16:00;;;;;;;11.82;3.90;;;;;;;;;;5019298;28;20045;-42
2023/12/07 03:18:29;;;;;;;16.17;4.65;;;;;;;;;;5029363;28;20037;-42
2023/12/07 03:20:57;;;;;;;12.48;4.50;;;;;;;;;;5023567;28;20144;-41
2023/12/07 03:23:25;;;;;;;13.82;4.40;;;;;;;;;;5028279;28;20051;-41
2023/12/07 03:25:53;;;;;;;11.93;4.97;;;;;;;;;;5019497;28;20682;-41
2023/12/07 03:28:20;;;;;;;14.70;5.07;;;;;;;;;;5028647;28;20094;-41
2023/12/07 03:30:48;;;;;;;12.13;5.43;;;;;;;;;;5020849;28;20060;-42
2023/12/07 03:33:16;;;;;;;16.17;5.97;;;;;;;;;;5028527;28;20044;-41
2023/12/07 03:35:45;;;;;;;19.55;5.68;;;;;;;;;;5026990;28;20795;-42
2023/12/07 03:38:13;;;;;;;14.77;5.20;;;;;;;;;;5026380;28;20047;-42
2023/12/07 03:40:40;;;;;;;14.18;4.63;;;;;;;;;;5022054;28;20044;-43
2023/12/07 03:43:08;;;;;;;13.20;5.63;;;;;;;;;;5024804;28;20495;-41
2023/12/07 03:45:36;;;;;;;14.70;5.18;;;;;;;;;;5023686;28;20549;-42
2023/12/07 03:48:04;;;;;;;15.27;5.85;;;;;;;;;;5009681;28;20045;-42
2023/12/07 03:50:32;;;;;;;12.17;5.10;;;;;;;;;;5020167;28;20036;-42
2023/12/07 03:53:02;;;;;;;11.90;5.03;;;;;;;;;;5027030;28;20053;-44
2023/12/07 03:55:29;;;;;;;13.75;5.40;;;;;;;;;;5020234;28;20356;-41
2023/12/07 03:57:57;;;;;;;12.55;6.05;;;;;;;;;;5028699;28;20134;-41
2023/12/07 04:00:25;;;;;;;14.70;5.25;;;;;;;;;;5018001;28;20049;-43
2023/12/07 04:02:53;;;;;;;11.67;4.77;;;;;;;;;;5029260;28;20051;-41
2023/12/07 04:05:20;;;;;;;14.55;5.47;;;;;;;;;;5029911;28;20041;-42
2023/12/07 04:07:48;;;;;;;14.57;5.90;;;;;;;;;;5025695;28;20061;-41
2023/12/07 04:10:17;;;;;;;12.93;6.10;;;;;;;;;;5023122;28;20041;-44
2023/12/07 04:12:45;;;;;;;13.15;5.53;;;;;;;;;;5029117;28;20228;-42
2023/12/07 04:15:13;;;;;;;14.50;6.20;;;;;;;;;;5009968;28;20037;-41
2023/12/07 04:17:45;;;;;;;14.32;6.30;;;;;;;;;;5035430;28;20037;-43
2023/12/07 04:20:13;;;;;;;12.52;6.18;;;;;;;;;;5019038;28;20076;-42
2023/12/07 04:22:41;;;;;;;13.82;5.85;;;;;;;;;;5022376;28;20038;-41
2023/12/07 04:25:10;;;;;;;13.85;5.78;;;;;;;;;;5031716;28;20041;-46
2023/12/07 04:27:39;;;;;;;13.53;5.60;;;;;;;;;;5020279;28;20123;-42
2023/12/07 04:30:07;;;;;;;13.18;5.28;;;;;;;;;;5035601;28;20098;-41
2023/12/07 04:32:35;;;;;;;14.05;5.82;;;;;;;;;;5025017;28;20142;-42
2023/12/07 04:35:03;;;;;;;14.38;5.75;;;;;;;;;;5035683;28;20040;-42
2023/12/07 04:37:30;;;;;;;13.50;5.47;;;;;;;;;;5022864;28;20399;-41
2023/12/07 04:39:58;;;;;;;14.70;6.27;;;;;;;;;;5034566;28;20124;-43
2023/12/07 04:42:26;;;;;;;13.25;5.90;;;;;;;;;;5026388;28;20045;-41
2023/12/07 04:44:55;;;;;;;12.65;5.80;;;;;;;;;;5029105;28;20045;-41
2023/12/07 04:47:23;;;;;;;14.50;5.43;;;;;;;;;;5028979;28;20041;-42
2023/12/07 04:49:51;;;;;;;16.50;4.95;;;;;;;;;;5034407;28;20156;-41
2023/12/07 04:52:20;;;;;;;12.13;5.43;;;;;;;;;;5024755;28;20045;-41
2023/12/07 04:54:48;;;;;;;10.52;4.70;;;;;;;;;;5029026;28;20488;-42
2023/12/07 04:57:16;;;;;;;12.40;4.97;;;;;;;;;;5028828;28;20033;-42
2023/12/07 04:59:46;;;;;;;13.27;5.18;;;;;;;;;;5024261;28;20047;-41
2023/12/07 05:02:16;;;;;;;12.82;4.63;;;;;;;;;;5032909;28;20064;-41
2023/12/07 05:04:44;;;;;;;11.40;4.30;;;;;;;;;;5029521;28;20049;-41
2023/12/07 05:07:12;;;;;;;11.05;4.38;;;;;;;;;;5025526;28;20454;-42
2023/12/07 05:09:40;;;;;;;10.57;3.65;;;;;;;;;;5037290;28;20041;-41
2023/12/07 05:12:08;;;;;;;10.57;3.88;;;;;;;;;;5047818;28;20045;-42
2023/12/07 05:14:36;;;;;;;9.43;3.90;;;;;;;;;;5026317;28;21224;-42
2023/12/07 05:17:05;;;;;;;9.67;3.27;;;;;;;;;;5053425;28;20041;-41
2023/12/07 05:19:34;;;;;;;10.35;3.63;;;;;;;;;;5028504;28;20164;-42
2023/12/07 05:22:02;;;;;;;11.48;3.13;;;;;;;;;;5029741;28;20482;-42
2023/12/07 05:24:30;;;;;;;7.93;2.80;;;;;;;;;;5029693;28;20490;-42
2023/12/07 05:26:57;;;;;;;12.85;3.28;;;;;;;;;;5042743;28;20040;-41
2023/12/07 05:29:25;;;;;;;8.53;3.10;;;;;;;;;;5026167;28;20042;-42
2023/12/07 05:31:53;;;;;;;8.48;3.30;;;;;;;;;;5025210;28;20049;-42
2023/12/07 05:34:21;;;;;;;11.40;3.72;;;;;;;;;;5030493;28;20056;-42
2023/12/07 05:36:50;;;;;;;11.40;3.42;;;;;;;;;;5028645;28;20041;-42
2023/12/07 05:39:18;;;;;;;10.63;4.03;;;;;;;;;;5030763;28;20045;-42
2023/12/07 05:42:04;;;;;;;11.63;3.70;;;;;;;;;;5029441;28;20162;-44
2023/12/07 05:44:32;;;;;;;7.85;3.22;;;;;;;;;;5020303;28;20078;-42
2023/12/07 05:46:59;;;;;;;9.63;3.60;;;;;;;;;;5028802;28;20435;-42
2023/12/07 05:49:27;;;;;;;7.90;3.30;;;;;;;;;;5010294;28;20041;-42
2023/12/07 05:51:56;;;;;;;10.23;3.72;;;;;;;;;;5018761;28;20041;-43
2023/12/07 05:54:24;;;;;;;10.27;4.37;;;;;;;;;;5011788;28;20187;-42
2023/12/07 05:56:52;;;;;;;12.25;4.32;;;;;;;;;;5012620;28;20041;-43
2023/12/07 05:59:20;;;;;;;7.07;2.83;;;;;;;;;;5005661;28;20060;-41
2023/12/07 06:01:47;;;;;;;7.80;3.15;;;;;;;;;;5017513;28;20081;-42
2023/12/07 06:04:16;;;;;;;9.13;3.10;;;;;;;;;;5014342;28;20029;-42
2023/12/07 06:06:44;;;;;;;7.00;2.43;;;;;;;;;;5021419;28;20047;-41
2023/12/07 06:09:13;;;;;;;9.25;2.50;;;;;;;;;;5017909;28;20032;-42
2023/12/07 06:11:41;;;;;;;8.70;2.40;;;;;;;;;;5008042;28;20041;-43
2023/12/07 06:14:10;;;;;;;6.40;2.05;;;;;;;;;;5024673;28;20041;-42
2023/12/07 06:16:39;;;;;;;6.22;2.05;;;;;;;;;;5012667;28;20114;-43
2023/12/07 06:19:07;;;;;;;6.67;1.90;;;;;;;;;;5017295;28;20036;-42
2023/12/07 06:21:35;;;;;;;11.30;2.13;;;;;;;;;;5006332;28;20139;-42
2023/12/07 06:24:03;;;;;;;7.47;2.05;;;;;;;;;;5016903;28;20040;-42
2023/12/07 06:26:32;;;;;;;7.35;1.77;;;;;;;;;;5013520;28;20469;-41
2023/12/07 06:29:00;;;;;;;7.68;2.28;;;;;;;;;;5021160;28;20037;-41
2023/12/07 06:31:28;;;;;;;7.03;1.87;;;;;;;;;;5008836;28;20037;-42
2023/12/07 06:33:55;;;;;;;5.93;1.60;;;;;;;;;;5013653;28;20401;-43
2023/12/07 06:36:25;;;;;;;5.45;1.67;;;;;;;;;;5017735;28;20057;-42
2023/12/07 06:38:54;;;;;;;7.10;2.05;;;;;;;;;;5010940;28;20049;-42
2023/12/07 06:41:22;;;;;;;7.38;1.88;;;;;;;;;;5008672;28;21114;-41
2023/12/07 06:43:51;;;;;;;10.03;2.20;;;;;;;;;;5013661;28;20143;-42
2023/12/07 06:46:20;;;;;;;6.18;2.15;;;;;;;;;;5013335;28;21051;-42
2023/12/07 06:48:48;;;;;;;5.78;1.67;;;;;;;;;;5017683;28;20033;-41
2023/12/07 06:51:16;;;;;;;7.38;1.90;;;;;;;;;;5021477;28;20569;-41
2023/12/07 06:53:44;;;;;;;8.30;1.80;;;;;;;;;;5018033;28;20060;-42
2023/12/07 06:56:11;;;;;;;6.60;1.77;;;;;;;;;;5022159;28;20102;-42
2023/12/07 06:58:39;;;;;;;7.43;1.45;;;;;;;;;;5019704;28;20052;-42
2023/12/07 07:01:09;;;;;;;4.55;1.50;;;;;;;;;;5012536;28;20059;-42
2023/12/07 07:03:37;;;;;;;5.05;1.30;;;;;;;;;;5009727;28;20144;-42
2023/12/07 07:06:05;;;;;;;5.75;2.00;;;;;;;;;;5024374;28;20037;-42
2023/12/07 07:08:33;;;;;;;6.10;1.40;;;;;;;;;;5015156;28;20037;-42
2023/12/07 07:11:01;;;;;;;5.45;1.50;;;;;;;;;;5021808;28;20033;-43
2023/12/07 07:13:28;;;;;;;6.63;1.50;;;;;;;;;;5012290;28;20529;-41
2023/12/07 07:15:56;;;;;;;5.53;1.80;;;;;;;;;;5017004;28;20045;-42
2023/12/07 07:18:27;;;;;;;6.50;1.85;;;;;;;;;;5019354;28;20480;-43
2023/12/07 07:20:55;;;;;;;5.17;1.40;;;;;;;;;;5006078;28;20037;-42
2023/12/07 07:23:23;;;;;;;5.15;1.50;;;;;;;;;;5016766;28;20048;-41
2023/12/07 07:25:50;;;;;;;6.32;2.30;;;;;;;;;;4994287;28;20041;-42
2023/12/07 07:28:18;;;;;;;7.45;1.90;;;;;;;;;;5019917;28;20132;-46
2023/12/07 07:30:46;;;;;;;7.25;1.70;;;;;;;;;;5013322;28;20488;-41
2023/12/07 07:33:14;;;;;;;5.63;2.13;;;;;;;;;;5026640;28;20049;-43
2023/12/07 07:35:43;;;;;;;4.68;1.63;;;;;;;;;;5014483;28;20120;-44
2023/12/07 07:38:10;;;;;;;6.75;2.13;;;;;;;;;;5021958;28;20592;-42
2023/12/07 07:40:38;;;;;;;5.63;2.10;;;;;;;;;;5014718;28;20033;-41
2023/12/07 07:43:06;;;;;;;6.57;2.55;;;;;;;;;;5020793;28;20775;-43
2023/12/07 07:45:34;;;;;;;6.80;2.50;;;;;;;;;;5012522;28;20047;-44
2023/12/07 07:48:03;;;;;;;6.60;2.70;;;;;;;;;;5024266;28;20778;-43
2023/12/07 07:50:31;;;;;;;5.90;2.38;;;;;;;;;;5017888;28;20041;-44
2023/12/07 07:53:01;;;;;;;8.55;2.65;;;;;;;;;;5019638;28;20069;-42
2023/12/07 07:55:29;;;;;;;5.93;2.42;;;;;;;;;;5022091;28;20123;-42
2023/12/07 07:57:56;;;;;;;6.03;2.07;;;;;;;;;;5019827;28;20052;-42
2023/12/07 08:00:25;;;;;;;9.20;2.30;;;;;;;;;;5024057;28;21155;-41
2023/12/07 08:02:53;;;;;;;7.07;2.28;;;;;;;;;;5010639;28;20441;-41
2023/12/07 08:05:21;;;;;;;5.38;2.17;;;;;;;;;;5022829;28;20959;-41
2023/12/07 08:07:49;;;;;;;5.95;1.90;;;;;;;;;;5020242;28;20052;-42
2023/12/07 08:10:35;;;;;;;6.73;2.27;;;;;;;;;;5028229;28;20044;-42
2023/12/07 08:13:22;;;;;;;5.32;1.60;;;;;;;;;;5023886;28;20518;-41
2023/12/07 08:15:50;;;;;;;4.88;1.90;;;;;;;;;;5024779;28;20032;-42
2023/12/07 08:18:22;;;;;;;8.27;2.20;;;;;;;;;;5022010;28;20040;-43
2023/12/07 08:20:50;;;;;;;6.07;2.17;;;;;;;;;;5023971;28;20115;-44
2023/12/07 08:23:22;;;;;;;5.60;2.03;;;;;;;;;;4824645;28;10001179;-41
2023/12/07 08:25:51;;;;;;;5.47;1.73;;;;;;;;;;5037420;28;20420;-42
2023/12/07 08:28:19;;;;;;;7.20;1.83;;;;;;;;;;5013204;28;20143;-44
2023/12/07 08:30:47;;;;;;;6.47;1.65;;;;;;;;;;5012403;28;20826;-41
2023/12/07 08:33:15;;;;;;;6.85;2.00;;;;;;;;;;5017323;28;20060;-42
2023/12/07 08:35:43;;;;;;;8.50;2.28;;;;;;;;;;5011207;28;20519;-41
2023/12/07 08:38:11;;;;;;;6.93;1.70;;;;;;;;;;5010034;28;20547;-42
2023/12/07 08:40:39;;;;;;;5.67;2.10;;;;;;;;;;5019615;28;20041;-41
2023/12/07 08:43:08;;;;;;;6.72;1.85;;;;;;;;;;5012752;28;20044;-42
2023/12/07 08:45:38;;;;;;;7.38;2.03;;;;;;;;;;5018510;28;20037;-41
2023/12/07 08:48:06;;;;;;;10.90;2.47;;;;;;;;;;5007586;28;20044;-41
2023/12/07 08:50:34;;;;;;;8.98;2.70;;;;;;;;;;5017277;28;20045;-42
2023/12/07 08:53:03;;;;;;;7.80;2.13;;;;;;;;;;5013555;28;20048;-42
2023/12/07 08:55:32;;;;;;;9.20;2.45;;;;;;;;;;5006699;28;20060;-42
2023/12/07 08:58:00;;;;;;;11.10;3.07;;;;;;;;;;4319729;28;10001031;-41
2023/12/07 09:00:29;;;;;;;8.68;2.30;;;;;;;;;;5011650;28;20045;-43
2023/12/07 09:02:57;;;;;;;9.82;2.05;;;;;;;;;;5020321;28;20510;-43
2023/12/07 09:05:27;;;;;;;11.57;2.60;;;;;;;;;;5002504;28;20102;-42
2023/12/07 09:07:55;;;;;;;7.90;2.40;;;;;;;;;;5002985;28;20068;-42
2023/12/07 09:10:23;;;;;;;7.65;2.20;;;;;;;;;;4998992;28;20053;-44
2023/12/07 09:12:50;;;;;;;7.70;2.35;;;;;;;;;;5009202;28;20056;-43
2023/12/07 09:15:18;;;;;;;8.32;1.80;;;;;;;;;;5000530;28;20060;-43
2023/12/07 09:17:50;;;;;;;9.93;2.58;;;;;;;;;;4992824;28;20049;-43
2023/12/07 09:20:19;;;;;;;10.67;2.40;;;;;;;;;;5004126;28;20159;-43
2023/12/07 09:22:48;;;;;;;10.93;2.38;;;;;;;;;;5006366;28;20063;-42
2023/12/07 09:25:17;;;;;;;11.18;2.40;;;;;;;;;;5011280;28;20079;-44
2023/12/07 09:27:44;;;;;;;8.55;2.45;;;;;;;;;;4977735;28;20123;-42
2023/12/07 09:30:12;;;;;;;9.43;2.50;;;;;;;;;;4996248;28;20616;-42
2023/12/07 09:32:42;;;;;;;10.67;2.47;;;;;;;;;;4999476;28;20068;-42
2023/12/07 09:35:15;;;;;;;10.88;3.30;;;;;;;;;;5004336;28;20183;-42
2023/12/07 09:37:43;;;;;;;7.85;2.35;;;;;;;;;;4997123;28;20033;-43
2023/12/07 09:40:16;;;;;;;10.25;2.67;;;;;;;;;;5009992;28;21400;-42
2023/12/07 09:42:44;;;;;;;9.80;2.17;;;;;;;;;;5014333;28;20058;-42
2023/12/07 09:45:12;;;;;;;12.20;1.80;;;;;;;;;;4984594;28;20052;-41
2023/12/07 09:47:40;;;;;;;10.38;1.90;;;;;;;;;;4977670;28;20033;-42
2023/12/07 09:50:10;;;;;;;12.82;2.75;;;;;;;;;;5010146;28;20055;-43
2023/12/07 09:52:39;;;;;;;11.95;2.60;;;;;;;;;;5000303;28;21291;-43
2023/12/07 09:55:12;;;;;;;8.00;2.20;;;;;;;;;;5003060;28;20049;-43
2023/12/07 09:57:40;;;;;;;7.70;2.00;;;;;;;;;;4998244;28;20060;-43
2023/12/07 10:00:09;;;;;;;6.32;1.95;;;;;;;;;;4998372;28;20041;-44
2023/12/07 10:02:38;;;;;;;9.27;2.67;;;;;;;;;;4985250;28;20135;-43
2023/12/07 10:05:06;;;;;;;8.18;2.15;;;;;;;;;;4986586;28;20040;-45
2023/12/07 10:07:37;;;;;;;10.18;2.42;;;;;;;;;;5028266;28;20498;-42
2023/12/07 10:10:07;;;;;;;9.23;2.10;;;;;;;;;;4989383;28;20183;-43
2023/12/07 10:12:36;;;;;;;10.38;2.38;;;;;;;;;;4995709;28;20257;-43
2023/12/07 10:15:13;;;;;;;7.47;1.95;;;;;;;;;;4995641;28;20057;-43
2023/12/07 10:17:44;;;;;;;10.75;2.30;;;;;;;;;;4999220;28;20557;-42
2023/12/07 10:20:13;;;;;;;8.73;1.98;;;;;;;;;;4990059;28;20029;-43
2023/12/07 10:22:41;;;;;;;8.13;2.20;;;;;;;;;;4978339;28;20396;-42
2023/12/07 10:25:12;;;;;;;11.73;1.95;;;;;;;;;;5019418;28;20569;-42
2023/12/07 10:27:42;;;;;;;9.85;2.03;;;;;;;;;;4998912;28;20033;-42
2023/12/07 10:30:12;;;;;;;11.40;2.10;;;;;;;;;;4989994;28;20455;-41
2023/12/07 10:32:40;;;;;;;12.85;2.22;;;;;;;;;;5005867;28;20040;-42
2023/12/07 10:35:09;;;;;;;11.07;2.07;;;;;;;;;;5001023;28;20499;-42
2023/12/07 10:37:37;;;;;;;7.93;1.90;;;;;;;;;;5002962;28;20047;-42
2023/12/07 10:40:07;;;;;;;8.93;1.75;;;;;;;;;;5008186;28;20044;-42
2023/12/07 10:42:38;;;;;;;12.93;2.08;;;;;;;;;;5002006;28;20663;-42
2023/12/07 10:45:07;;;;;;;10.13;1.88;;;;;;;;;;5001134;28;20048;-41
2023/12/07 10:47:36;;;;;;;9.00;1.50;;;;;;;;;;4997246;28;20037;-41
2023/12/07 10:50:07;;;;;;;9.35;1.27;;;;;;;;;;5008216;28;20384;-44
2023/12/07 10:52:36;;;;;;;11.77;1.50;;;;;;;;;;5010023;28;20073;-43
2023/12/07 10:55:04;;;;;;;9.73;1.13;;;;;;;;;;5029405;28;20526;-41
2023/12/07 10:57:32;;;;;;;8.68;1.52;;;;;;;;;;5007283;28;20048;-43
2023/12/07 11:00:03;;;;;;;9.10;1.30;;;;;;;;;;4309936;28;10000375;-42
2023/12/07 11:02:33;;;;;;;8.00;1.05;;;;;;;;;;5006060;28;20122;-41
2023/12/07 11:05:03;;;;;;;10.80;1.02;;;;;;;;;;5009819;28;20056;-41
2023/12/07 11:07:35;;;;;;;10.38;1.75;;;;;;;;;;5000000;28;20570;-42
2023/12/07 11:10:06;;;;;;;13.52;1.52;;;;;;;;;;5003817;28;20084;-41
2023/12/07 11:12:39;;;;;;;7.40;1.00;;;;;;;;;;5007333;28;20055;-41
2023/12/07 11:15:09;;;;;;;9.90;1.40;;;;;;;;;;5000997;28;20442;-44
2023/12/07 11:17:53;;;;;;;9.88;1.60;;;;;;;;;;5004221;28;20059;-43
2023/12/07 11:20:22;;;;;;;14.35;1.85;;;;;;;;;;5009416;28;20064;-44
2023/12/07 11:22:51;;;;;;;11.90;1.67;;;;;;;;;;5002982;28;20037;-45
2023/12/07 11:25:20;;;;;;;9.33;1.60;;;;;;;;;;4999159;28;20072;-42
2023/12/07 11:27:48;;;;;;;8.75;1.80;;;;;;;;;;4991324;28;20121;-44
2023/12/07 11:30:18;;;;;;;10.18;1.30;;;;;;;;;;5003285;28;20047;-44
2023/12/07 11:32:46;;;;;;;12.57;1.30;;;;;;;;;;4997706;28;20545;-42
2023/12/07 11:35:15;;;;;;;9.35;1.48;;;;;;;;;;4997689;28;20491;-41
2023/12/07 11:38:01;;;;;;;7.47;1.37;;;;;;;;;;5007810;28;20152;-43
2023/12/07 11:40:30;;;;;;;9.65;1.23;;;;;;;;;;5011294;28;20052;-43
2023/12/07 11:42:59;;;;;;;15.55;2.03;;;;;;;;;;5010077;28;20504;-41
2023/12/07 11:45:41;;;;;;;5.88;1.33;;;;;;;;;;5006793;28;20045;-42
2023/12/07 11:48:12;;;;;;;8.98;1.80;;;;;;;;;;5004448;28;20037;-42
2023/12/07 11:50:54;;;;;;;6.40;1.53;;;;;;;;;;5014053;28;20648;-41
2023/12/07 11:53:23;;;;;;;10.05;1.55;;;;;;;;;;5002099;28;20045;-41
2023/12/07 11:55:53;;;;;;;8.80;1.63;;;;;;;;;;5006551;28;20128;-42
2023/12/07 11:58:21;;;;;;;8.27;1.52;;;;;;;;;;5007187;28;20065;-42
2023/12/07 12:01:09;;;;;;;9.63;1.63;;;;;;;;;;5004511;28;20068;-43
2023/12/07 12:03:38;;;;;;;10.50;1.97;;;;;;;;;;5009792;28;20492;-42
2023/12/07 12:06:07;;;;;;;13.07;1.70;;;;;;;;;;5004923;28;20037;-44
2023/12/07 12:08:36;;;;;;;7.63;1.83;;;;;;;;;;5006387;28;20637;-45
2023/12/07 12:11:05;;;;;;;12.23;1.50;;;;;;;;;;5010287;28;20076;-45
2023/12/07 12:13:35;;;;;;;9.32;2.00;;;;;;;;;;4999889;28;21123;-44
2023/12/07 12:16:03;;;;;;;9.73;1.83;;;;;;;;;;5006040;28;20588;-44
2023/12/07 12:18:35;;;;;;;10.32;1.63;;;;;;;;;;5002828;28;20032;-43
2023/12/07 12:21:04;;;;;;;8.73;1.70;;;;;;;;;;5008863;28;20484;-41
2023/12/07 12:23:32;;;;;;;6.40;1.50;;;;;;;;;;5006863;28;20051;-42
2023/12/07 12:26:00;;;;;;;7.78;1.98;;;;;;;;;;4983698;28;20037;-41
2023/12/07 12:28:28;;;;;;;5.73;1.43;;;;;;;;;;4997773;28;20053;-45
2023/12/07 12:30:56;;;;;;;7.65;1.75;;;;;;;;;;5009029;28;20045;-44
2023/12/07 12:33:24;;;;;;;11.05;1.50;;;;;;;;;;5000120;28;20545;-44
2023/12/07 12:36:02;;;;;;;7.25;1.30;;;;;;;;;;4306656;28;10000230;-43
2023/12/07 12:38:31;;;;;;;8.10;1.30;;;;;;;;;;4992745;28;20806;-43
2023/12/07 12:41:10;;;;;;;7.93;1.15;;;;;;;;;;4998295;28;20589;-43
2023/12/07 12:43:38;;;;;;;5.68;1.00;;;;;;;;;;4996920;28;20045;-44
2023/12/07 12:46:06;;;;;;;6.30;1.40;;;;;;;;;;4996546;28;20041;-44
2023/12/07 12:48:35;;;;;;;8.70;1.55;;;;;;;;;;5025587;28;20439;-43
2023/12/07 12:51:13;;;;;;;9.47;1.17;;;;;;;;;;4998427;28;20622;-45
2023/12/07 12:53:42;;;;;;;6.28;1.30;;;;;;;;;;4998747;28;20593;-43
2023/12/07 12:56:11;;;;;;;10.82;1.55;;;;;;;;;;4998339;28;20060;-43
2023/12/07 12:58:39;;;;;;;9.52;1.13;;;;;;;;;;5002832;28;20049;-43
2023/12/07 13:01:07;;;;;;;9.00;1.58;;;;;;;;;;4998135;28;20488;-43
2023/12/07 13:03:36;;;;;;;9.03;1.40;;;;;;;;;;5000205;28;20033;-43
2023/12/07 13:06:05;;;;;;;8.80;1.20;;;;;;;;;;5001465;28;20049;-44
2023/12/07 13:08:34;;;;;;;6.60;1.40;;;;;;;;;;4996275;28;20511;-44
2023/12/07 13:11:02;;;;;;;7.05;1.27;;;;;;;;;;4997303;28;20045;-43
2023/12/07 13:13:30;;;;;;;5.70;0.93;;;;;;;;;;4657205;28;10000383;-43
2023/12/07 13:15:58;;;;;;;10.73;1.02;;;;;;;;;;4992713;28;20090;-44
2023/12/07 13:18:26;;;;;;;5.72;1.00;;;;;;;;;;5009536;28;21529;-46
2023/12/07 13:20:54;;;;;;;6.35;1.20;;;;;;;;;;5000967;28;20041;-43
2023/12/07 13:23:23;;;;;;;9.60;1.80;;;;;;;;;;5009514;28;20586;-44
2023/12/07 13:25:52;;;;;;;9.77;1.90;;;;;;;;;;4998026;28;20628;-43
2023/12/07 13:28:20;;;;;;;8.48;1.10;;;;;;;;;;5003461;28;20053;-44
2023/12/07 13:30:50;;;;;;;4.47;0.70;;;;;;;;;;5003481;28;20450;-44
2023/12/07 13:33:17;;;;;;;5.07;1.00;;;;;;;;;;5004409;28;20041;-44
2023/12/07 13:35:55;;;;;;;7.38;0.95;;;;;;;;;;5003033;28;20045;-44
2023/12/07 13:38:23;;;;;;;5.07;0.87;;;;;;;;;;4999754;28;20068;-43
2023/12/07 13:40:53;;;;;;;6.13;1.00;;;;;;;;;;5007167;28;20048;-44
2023/12/07 13:43:23;;;;;;;8.13;0.95;;;;;;;;;;5001917;28;20541;-43
2023/12/07 13:45:51;;;;;;;6.10;1.50;;;;;;;;;;5010126;28;20049;-43
2023/12/07 13:48:19;;;;;;;8.35;1.42;;;;;;;;;;5000258;28;20052;-44
2023/12/07 13:50:48;;;;;;;6.60;1.37;;;;;;;;;;4997295;28;20087;-44
2023/12/07 13:53:18;;;;;;;6.22;1.15;;;;;;;;;;5004594;28;20063;-45
2023/12/07 13:55:45;;;;;;;5.90;1.00;;;;;;;;;;4990191;28;20091;-44
2023/12/07 13:58:15;;;;;;;4.82;1.05;;;;;;;;;;5017891;28;20045;-44
2023/12/07 14:00:45;;;;;;;7.18;1.40;;;;;;;;;;5023217;28;20047;-43
2023/12/07 14:03:14;;;;;;;5.27;1.13;;;;;;;;;;5042419;28;20053;-44
2023/12/07 14:05:42;;;;;;;6.60;1.00;;;;;;;;;;5029691;28;20029;-43
2023/12/07 14:08:10;;;;;;;6.15;0.88;;;;;;;;;;5043529;28;20050;-44
2023/12/07 14:10:40;;;;;;;3.80;0.75;;;;;;;;;;5020583;28;20041;-44
2023/12/07 14:13:09;;;;;;;4.45;0.60;;;;;;;;;;5012896;28;20076;-43
2023/12/07 14:15:38;;;;;;;4.67;0.63;;;;;;;;;;5006230;28;20048;-43
2023/12/07 14:18:13;;;;;;;6.13;0.52;;;;;;;;;;5007503;28;20045;-44
2023/12/07 14:20:42;;;;;;;5.72;0.75;;;;;;;;;;4999489;28;20984;-43
2023/12/07 14:23:30;;;;;;;4.25;0.60;;;;;;;;;;5002035;28;20048;-43
2023/12/07 14:25:59;;;;;;;2.80;0.45;;;;;;;;;;4997850;28;20063;-43
2023/12/07 14:28:33;;;;;;;3.87;0.60;;;;;;;;;;4997820;28;20124;-43
2023/12/07 14:31:04;;;;;;;4.53;0.52;;;;;;;;;;5001543;28;20049;-43
2023/12/07 14:33:31;;;;;;;3.78;0.40;;;;;;;;;;5000753;28;20096;-44
2023/12/07 14:36:00;;;;;;;4.20;0.40;;;;;;;;;;5006303;28;20048;-43
2023/12/07 14:38:28;;;;;;;3.10;0.50;;;;;;;;;;5006373;28;20044;-45
2023/12/07 14:40:56;;;;;;;3.60;0.50;;;;;;;;;;5005198;28;20495;-44
2023/12/07 14:43:23;;;;;;;6.45;0.70;;;;;;;;;;4998529;28;20041;-44
2023/12/07 14:45:52;;;;;;;2.97;0.75;;;;;;;;;;5002230;28;20119;-43